sensor_id;sensor_type;location;lat;lon;timestamp;temperature;humidity
49821;DHT22;36893;52.520;13.450;2023-02-21T00:01:46;22.60;76.20
49821;DHT22;36893;52.520;13.450;2023-02-21T00:12:05;22.60;76.00
49821;DHT22;36893;52.520;13.450;2023-02-21T00:22:24;22.60;75.90
49821;DHT22;36893;52.520;13.450;2023-02-21T00:32:43;22.60;75.80
49821;DHT22;36893;52.520;13.450;2023-02-21T00:43:03;22.60;75.70
49821;DHT22;36893;52.520;13.450;2023-02-21T00:53:25;22.70;75.70
49821;DHT22;36893;52.520;13.450;2023-02-21T01:03:45;22.70;75.60
49821;DHT22;36893;52.520;13.450;2023-02-21T01:14:04;22.70;75.50
49821;DHT22;36893;52.520;13.450;2023-02-21T01:24:25;22.70;75.30
49821;DHT22;36893;52.520;13.450;2023-02-21T01:34:44;22.70;75.30
49821;DHT22;36893;52.520;13.450;2023-02-21T01:45:37;22.70;75.20
49821;DHT22;36893;52.520;13.450;2023-02-21T01:55:59;22.70;75.10
49821;DHT22;36893;52.520;13.450;2023-02-21T02:06:19;22.70;75.40
49821;DHT22;36893;52.520;13.450;2023-02-21T02:16:52;22.70;74.90
49821;DHT22;36893;52.520;13.450;2023-02-21T02:37:49;22.80;74.70
49821;DHT22;36893;52.520;13.450;2023-02-21T02:48:00;22.80;74.60
49821;DHT22;36893;52.520;13.450;2023-02-21T02:58:06;22.80;74.40
49821;DHT22;36893;52.520;13.450;2023-02-21T03:18:52;22.80;74.30
49821;DHT22;36893;52.520;13.450;2023-02-21T03:28:57;22.80;74.20
49821;DHT22;36893;52.520;13.450;2023-02-21T03:38:58;22.80;74.10
49821;DHT22;36893;52.520;13.450;2023-02-21T03:48:59;22.80;74.00
49821;DHT22;36893;52.520;13.450;2023-02-21T03:58:59;22.80;73.90
49821;DHT22;36893;52.520;13.450;2023-02-21T04:09:00;22.80;73.80
49821;DHT22;36893;52.520;13.450;2023-02-21T04:19:01;22.80;73.70
49821;DHT22;36893;52.520;13.450;2023-02-21T04:29:02;22.80;73.60
49821;DHT22;36893;52.520;13.450;2023-02-21T04:39:04;22.80;73.50
49821;DHT22;36893;52.520;13.450;2023-02-21T04:49:05;22.80;73.50
49821;DHT22;36893;52.520;13.450;2023-02-21T04:59:05;22.80;73.40
49821;DHT22;36893;52.520;13.450;2023-02-21T05:09:06;22.80;73.30
49821;DHT22;36893;52.520;13.450;2023-02-21T05:19:07;22.80;73.20
49821;DHT22;36893;52.520;13.450;2023-02-21T05:29:07;22.80;73.10
49821;DHT22;36893;52.520;13.450;2023-02-21T05:39:08;22.80;73.90
49821;DHT22;36893;52.520;13.450;2023-02-21T05:49:09;22.80;73.00
49821;DHT22;36893;52.520;13.450;2023-02-21T05:59:11;22.80;73.00
49821;DHT22;36893;52.520;13.450;2023-02-21T06:09:12;22.80;73.00
49821;DHT22;36893;52.520;13.450;2023-02-21T06:19:14;22.80;72.90
49821;DHT22;36893;52.520;13.450;2023-02-21T06:29:18;22.80;72.80
49821;DHT22;36893;52.520;13.450;2023-02-21T06:39:19;22.80;72.80
49821;DHT22;36893;52.520;13.450;2023-02-21T06:49:20;22.90;72.80
49821;DHT22;36893;52.520;13.450;2023-02-21T06:59:21;22.80;72.70
49821;DHT22;36893;52.520;13.450;2023-02-21T07:09:22;22.80;72.70
49821;DHT22;36893;52.520;13.450;2023-02-21T07:19:25;22.80;72.70
49821;DHT22;36893;52.520;13.450;2023-02-21T07:29:26;22.80;72.70
49821;DHT22;36893;52.520;13.450;2023-02-21T07:39:27;22.80;72.60
49821;DHT22;36893;52.520;13.450;2023-02-21T07:49:27;22.80;72.80
49821;DHT22;36893;52.520;13.450;2023-02-21T07:59:28;22.80;72.80
49821;DHT22;36893;52.520;13.450;2023-02-21T08:09:30;22.80;72.70
49821;DHT22;36893;52.520;13.450;2023-02-21T08:19:31;22.80;72.70
49821;DHT22;36893;52.520;13.450;2023-02-21T08:29:31;22.80;72.70
49821;DHT22;36893;52.520;13.450;2023-02-21T08:39:32;22.80;72.70
49821;DHT22;36893;52.520;13.450;2023-02-21T08:49:33;22.80;72.70
49821;DHT22;36893;52.520;13.450;2023-02-21T08:59:33;22.80;72.80
49821;DHT22;36893;52.520;13.450;2023-02-21T09:09:37;22.80;73.00
49821;DHT22;36893;52.520;13.450;2023-02-21T09:19:38;22.80;73.00
49821;DHT22;36893;52.520;13.450;2023-02-21T09:29:39;22.70;73.10
49821;DHT22;36893;52.520;13.450;2023-02-21T09:39:39;22.70;73.20
49821;DHT22;36893;52.520;13.450;2023-02-21T09:49:43;22.60;73.30
49821;DHT22;36893;52.520;13.450;2023-02-21T09:59:47;22.60;74.10
49821;DHT22;36893;52.520;13.450;2023-02-21T10:09:56;22.60;73.50
49821;DHT22;36893;52.520;13.450;2023-02-21T10:20:14;22.60;73.40
49821;DHT22;36893;52.520;13.450;2023-02-21T10:30:32;22.60;73.50
49821;DHT22;36893;52.520;13.450;2023-02-21T10:50:52;22.50;74.50
49821;DHT22;36893;52.520;13.450;2023-02-21T11:01:13;22.60;73.80
49821;DHT22;36893;52.520;13.450;2023-02-21T11:11:33;22.60;73.90
49821;DHT22;36893;52.520;13.450;2023-02-21T11:21:34;22.60;73.90
49821;DHT22;36893;52.520;13.450;2023-02-21T11:31:35;22.70;73.90
49821;DHT22;36893;52.520;13.450;2023-02-21T11:41:50;22.60;73.90
49821;DHT22;36893;52.520;13.450;2023-02-21T11:52:04;22.60;74.00
49821;DHT22;36893;52.520;13.450;2023-02-21T12:13:02;22.60;74.20
49821;DHT22;36893;52.520;13.450;2023-02-21T12:44:40;22.60;74.20
49821;DHT22;36893;52.520;13.450;2023-02-21T12:55:08;22.60;74.30
49821;DHT22;36893;52.520;13.450;2023-02-21T13:05:18;22.60;74.30
49821;DHT22;36893;52.520;13.450;2023-02-21T13:15:27;22.60;73.80
49821;DHT22;36893;52.520;13.450;2023-02-21T13:35:42;22.70;73.70
49821;DHT22;36893;52.520;13.450;2023-02-21T13:45:42;22.60;73.60
49821;DHT22;36893;52.520;13.450;2023-02-21T14:26:48;22.60;73.80
49821;DHT22;36893;52.520;13.450;2023-02-21T14:36:50;22.60;73.80
49821;DHT22;36893;52.520;13.450;2023-02-21T14:57:05;22.60;73.80
49821;DHT22;36893;52.520;13.450;2023-02-21T15:07:32;22.60;73.90
49821;DHT22;36893;52.520;13.450;2023-02-21T15:17:37;22.60;74.10
49821;DHT22;36893;52.520;13.450;2023-02-21T15:37:48;22.60;74.20
49821;DHT22;36893;52.520;13.450;2023-02-21T15:47:49;22.60;74.20
49821;DHT22;36893;52.520;13.450;2023-02-21T15:57:59;22.60;74.30
49821;DHT22;36893;52.520;13.450;2023-02-21T16:08:03;22.60;74.50
49821;DHT22;36893;52.520;13.450;2023-02-21T16:18:08;22.60;74.30
49821;DHT22;36893;52.520;13.450;2023-02-21T16:28:11;22.70;74.40
49821;DHT22;36893;52.520;13.450;2023-02-21T16:38:14;22.70;74.40
49821;DHT22;36893;52.520;13.450;2023-02-21T16:48:19;22.70;74.40
49821;DHT22;36893;52.520;13.450;2023-02-21T16:58:26;22.60;74.40
49821;DHT22;36893;52.520;13.450;2023-02-21T17:08:28;22.60;74.50
49821;DHT22;36893;52.520;13.450;2023-02-21T17:18:28;22.70;74.40
49821;DHT22;36893;52.520;13.450;2023-02-21T17:28:30;22.80;74.40
49821;DHT22;36893;52.520;13.450;2023-02-21T17:38:32;22.70;74.40
49821;DHT22;36893;52.520;13.450;2023-02-21T17:48:32;22.70;74.40
49821;DHT22;36893;52.520;13.450;2023-02-21T17:58:33;22.70;74.50
49821;DHT22;36893;52.520;13.450;2023-02-21T18:08:34;22.70;74.50
49821;DHT22;36893;52.520;13.450;2023-02-21T18:18:35;22.70;74.40
49821;DHT22;36893;52.520;13.450;2023-02-21T18:28:35;22.70;74.30
49821;DHT22;36893;52.520;13.450;2023-02-21T18:38:40;22.70;75.10
49821;DHT22;36893;52.520;13.450;2023-02-21T18:48:42;22.70;74.40
49821;DHT22;36893;52.520;13.450;2023-02-21T18:58:45;22.70;74.40
49821;DHT22;36893;52.520;13.450;2023-02-21T19:08:48;22.70;74.10
49821;DHT22;36893;52.520;13.450;2023-02-21T19:18:55;22.80;73.90
49821;DHT22;36893;52.520;13.450;2023-02-21T19:28:56;22.80;73.90
49821;DHT22;36893;52.520;13.450;2023-02-21T19:38:57;22.70;74.00
49821;DHT22;36893;52.520;13.450;2023-02-21T19:48:57;22.70;74.00
49821;DHT22;36893;52.520;13.450;2023-02-21T19:59:01;22.70;74.10
49821;DHT22;36893;52.520;13.450;2023-02-21T20:09:07;22.70;74.10
49821;DHT22;36893;52.520;13.450;2023-02-21T20:19:09;22.70;73.90
49821;DHT22;36893;52.520;13.450;2023-02-21T20:29:10;22.80;74.00
49821;DHT22;36893;52.520;13.450;2023-02-21T20:39:22;22.70;74.00
49821;DHT22;36893;52.520;13.450;2023-02-21T20:49:27;22.70;74.00
49821;DHT22;36893;52.520;13.450;2023-02-21T20:59:31;22.70;74.10
49821;DHT22;36893;52.520;13.450;2023-02-21T21:09:34;22.70;74.00
49821;DHT22;36893;52.520;13.450;2023-02-21T21:19:34;22.80;73.90
49821;DHT22;36893;52.520;13.450;2023-02-21T21:29:37;22.80;73.90
49821;DHT22;36893;52.520;13.450;2023-02-21T21:39:45;22.70;73.90
49821;DHT22;36893;52.520;13.450;2023-02-21T21:49:48;22.70;74.00
49821;DHT22;36893;52.520;13.450;2023-02-21T21:59:49;22.70;74.00
49821;DHT22;36893;52.520;13.450;2023-02-21T22:09:50;22.80;73.90
49821;DHT22;36893;52.520;13.450;2023-02-21T22:19:50;22.80;73.70
49821;DHT22;36893;52.520;13.450;2023-02-21T22:29:51;22.80;73.80
49821;DHT22;36893;52.520;13.450;2023-02-21T22:39:52;22.80;73.90
49821;DHT22;36893;52.520;13.450;2023-02-21T22:49:52;22.70;73.90
49821;DHT22;36893;52.520;13.450;2023-02-21T22:59:53;22.70;74.00
49821;DHT22;36893;52.520;13.450;2023-02-21T23:09:57;22.70;73.90
49821;DHT22;36893;52.520;13.450;2023-02-21T23:19:57;22.80;73.80
49821;DHT22;36893;52.520;13.450;2023-02-21T23:29:58;22.80;73.90
49821;DHT22;36893;52.520;13.450;2023-02-21T23:39:58;22.80;73.90
49821;DHT22;36893;52.520;13.450;2023-02-21T23:49:59;22.70;74.00
